Williams Bay, Wisconsin
Current Conditions -  °F | °C
As of 12:35 PM on Saturday 20 Dec 2014 (Local Time) from KBUU Reporting Station
Overcast Overcast  
Wind Chill: 28°   Ceiling: 2900
Heat Index: 28°   Visibility: 7mi
Dew Point: 23°   Wind: 3mph
Humidity: 80%   Direction: 200°SSW
Pressure: 30.24"   Gusts: NA
Location:  42.58°N, 88.54°W
Report Text: KBUU 201835Z AUTO 20003KT 7SM BKN029 OVC065 M02/M05 A3024 RMK AO2 T10201050
Loading
Personal Weather Stations






























Interactive Weather Map New forecast layout! Learn more

10-Day Weather Forecast

Advertisements
Track Severe Weather on mobile